YPW weather

Powell River Airport
Powell River, British Columbia, Canada

Public forecast

Using degrees Celsius for public forecast. Weather courtesy of forecast.io.

METAR (pilot weather report)

Retrieved 2019/07/19 16:00 UTC (2 minutes ago):

CYPW 191600Z 30007KT 25SM FEW012 SCT027 14/11 A3012 RMK CU1SC2 VIS N-E 3 LO CLD BR SLP202

TAF (pilot weather forecast)

Closest forecast is Comox Airport, 16.7 nm (31.0 km) WSW. Retrieved 2019/07/19 12:42 UTC (3 hours ago):

TAF CYQQ 191139Z 1912/2012 33005KT P6SM FEW050 BECMG 1917/1919 05005KT FM200000 VRB03KT P6SM SCT050 BECMG 2008/2010 30007KT RMK NXT FCST BY 191800Z